createdAt,value
2022-10-15T00:00:26.366Z,0.50
2022-10-15T00:02:53.670Z,0.60
2022-10-15T00:05:21.627Z,1.30
2022-10-15T00:07:48.899Z,0.50
2022-10-15T00:10:17.150Z,0.70
2022-10-15T00:12:44.563Z,0.50
2022-10-15T00:15:12.494Z,0.88
2022-10-15T00:17:39.772Z,1.65
2022-10-15T00:20:08.707Z,0.80
2022-10-15T00:22:36.223Z,0.38
2022-10-15T00:25:03.470Z,0.60
2022-10-15T00:27:30.675Z,1.20
2022-10-15T00:30:00.206Z,0.60
2022-10-15T00:32:27.570Z,0.68
2022-10-15T00:34:55.288Z,0.40
2022-10-15T00:37:22.699Z,0.40
2022-10-15T00:39:50.142Z,1.02
2022-10-15T00:42:17.806Z,1.20
2022-10-15T00:44:49.529Z,1.35
2022-10-15T00:47:20.144Z,0.40
2022-10-15T00:50:07.861Z,0.40
2022-10-15T00:52:35.521Z,0.40
2022-10-15T00:55:22.938Z,0.40
2022-10-15T00:57:50.862Z,0.60
2022-10-15T01:00:18.593Z,0.40
2022-10-15T01:02:47.338Z,0.50
2022-10-15T01:05:16.326Z,1.10
2022-10-15T01:07:43.864Z,1.10
2022-10-15T01:10:11.772Z,0.65
2022-10-15T01:12:51.452Z,0.30
2022-10-15T01:15:27.930Z,0.38
2022-10-15T01:17:58.181Z,1.00
2022-10-15T01:20:44.324Z,1.50
2022-10-15T01:23:11.644Z,0.30
2022-10-15T01:25:48.075Z,1.55
2022-10-15T01:28:41.870Z,0.52
2022-10-15T01:31:12.413Z,0.30
2022-10-15T01:33:52.068Z,0.30
2022-10-15T01:36:38.211Z,0.47
2022-10-15T01:39:05.856Z,0.52
2022-10-15T01:41:38.598Z,0.50
2022-10-15T01:44:12.102Z,0.63
2022-10-15T01:47:05.775Z,0.30
2022-10-15T01:49:38.334Z,0.85
2022-10-15T01:52:18.100Z,0.30
2022-10-15T01:54:46.899Z,0.40
2022-10-15T01:57:18.296Z,0.50
2022-10-15T01:59:45.532Z,0.40
2022-10-15T02:02:13.137Z,0.40
2022-10-15T02:04:40.508Z,0.30
2022-10-15T02:07:14.690Z,0.40
2022-10-15T02:09:57.191Z,0.30
2022-10-15T02:12:43.276Z,0.30
2022-10-15T02:15:19.600Z,1.08
2022-10-15T02:18:03.424Z,0.70
2022-10-15T02:20:54.007Z,0.60
2022-10-15T02:23:22.957Z,0.40
2022-10-15T02:25:52.086Z,0.40
2022-10-15T02:28:19.792Z,0.40
2022-10-15T02:30:51.248Z,0.60
2022-10-15T02:33:18.949Z,0.52
2022-10-15T02:35:47.778Z,0.40
2022-10-15T02:38:17.300Z,0.52
2022-10-15T02:40:45.480Z,1.00
2022-10-15T02:43:14.439Z,0.50
2022-10-15T02:45:41.756Z,2.10
2022-10-15T02:48:09.173Z,0.50
2022-10-15T02:50:36.560Z,0.50
2022-10-15T02:53:03.948Z,0.45
2022-10-15T02:55:31.247Z,1.38
2022-10-15T02:57:58.480Z,0.40
2022-10-15T03:00:26.180Z,0.88
2022-10-15T03:02:53.581Z,0.85
2022-10-15T03:05:21.080Z,1.85
2022-10-15T03:07:48.341Z,0.30
2022-10-15T03:10:15.832Z,0.30
2022-10-15T03:12:43.095Z,0.40
2022-10-15T03:15:10.409Z,0.52
2022-10-15T03:17:37.637Z,0.38
2022-10-15T03:20:05.713Z,0.57
2022-10-15T03:22:32.984Z,0.57
2022-10-15T03:25:00.241Z,0.40
2022-10-15T03:27:27.464Z,1.10
2022-10-15T03:29:54.756Z,0.40
2022-10-15T03:32:22.078Z,1.08
2022-10-15T03:34:49.328Z,0.30
2022-10-15T03:37:16.571Z,1.40
2022-10-15T03:39:43.749Z,0.30
2022-10-15T03:42:11.217Z,0.77
2022-10-15T03:44:38.597Z,0.75
2022-10-15T03:47:05.928Z,1.25
2022-10-15T03:49:33.144Z,0.50
2022-10-15T03:52:00.440Z,0.45
2022-10-15T03:54:27.618Z,0.47
2022-10-15T03:56:54.892Z,0.50
2022-10-15T03:59:22.171Z,0.40
2022-10-15T04:01:49.572Z,0.57
2022-10-15T04:04:16.866Z,1.55
2022-10-15T04:06:47.781Z,2.28
2022-10-15T04:09:15.639Z,0.30
2022-10-15T04:11:42.901Z,0.32
2022-10-15T04:14:10.155Z,0.68
2022-10-15T04:16:38.811Z,0.40
2022-10-15T04:19:08.706Z,0.30
2022-10-15T04:21:38.345Z,2.88
2022-10-15T04:24:05.632Z,0.40
2022-10-15T04:26:33.042Z,0.60
2022-10-15T04:29:00.338Z,0.40
2022-10-15T04:31:27.624Z,0.30
2022-10-15T04:33:54.878Z,1.08
2022-10-15T04:36:22.319Z,0.40
2022-10-15T04:38:49.597Z,0.68
2022-10-15T04:41:16.915Z,0.30
2022-10-15T04:43:44.168Z,0.40
2022-10-15T04:46:11.384Z,0.38
2022-10-15T04:48:42.231Z,0.30
2022-10-15T04:51:13.034Z,0.40
2022-10-15T04:53:40.600Z,0.30
2022-10-15T04:56:08.907Z,0.30
2022-10-15T04:58:36.814Z,0.40
2022-10-15T05:01:06.213Z,0.40
2022-10-15T05:06:20.095Z,1.95
2022-10-15T05:08:48.047Z,0.40
2022-10-15T05:11:25.165Z,1.08
2022-10-15T05:13:52.929Z,0.45
2022-10-15T05:16:21.411Z,2.50
2022-10-15T05:18:50.314Z,0.43
2022-10-15T05:21:18.411Z,1.13
2022-10-15T05:23:47.245Z,0.57
2022-10-15T05:26:15.940Z,0.40
2022-10-15T05:28:43.433Z,4.88
2022-10-15T05:31:16.045Z,0.40
2022-10-15T05:33:45.974Z,0.68
2022-10-15T05:36:14.504Z,0.30
2022-10-15T05:38:41.927Z,1.42
2022-10-15T05:41:09.269Z,2.88
2022-10-15T05:43:40.312Z,0.85
2022-10-15T05:46:09.147Z,0.40
2022-10-15T05:48:36.474Z,0.40
2022-10-15T05:51:04.935Z,1.65
2022-10-15T05:53:32.137Z,0.30
2022-10-15T05:55:59.501Z,0.40
2022-10-15T05:58:29.016Z,0.35
2022-10-15T06:00:58.851Z,0.88
2022-10-15T06:03:26.762Z,0.70
2022-10-15T06:05:54.264Z,1.23
2022-10-15T06:08:21.772Z,0.50
2022-10-15T06:10:49.474Z,0.40
2022-10-15T06:13:17.314Z,0.70
2022-10-15T06:15:45.519Z,2.25
2022-10-15T06:18:15.945Z,0.47
2022-10-15T06:20:44.181Z,3.03
2022-10-15T06:23:13.089Z,1.65
2022-10-15T06:25:40.365Z,0.40
2022-10-15T06:28:09.761Z,0.40
2022-10-15T06:30:37.053Z,0.38
2022-10-15T06:33:04.483Z,0.40
2022-10-15T06:35:34.212Z,0.98
2022-10-15T06:38:05.218Z,0.82
2022-10-15T06:40:32.532Z,1.98
2022-10-15T06:43:10.274Z,0.40
2022-10-15T06:45:38.247Z,1.40
2022-10-15T06:48:06.096Z,1.77
2022-10-15T06:50:34.132Z,0.50
2022-10-15T06:53:01.370Z,1.17
2022-10-15T06:55:29.079Z,1.70
2022-10-15T06:57:56.798Z,0.40
2022-10-15T07:00:24.753Z,1.13
2022-10-15T07:02:52.335Z,1.05
2022-10-15T07:05:19.806Z,0.65
2022-10-15T07:07:54.095Z,0.52
2022-10-15T07:12:48.744Z,4.72
2022-10-15T07:15:16.331Z,0.40
2022-10-15T07:17:48.530Z,0.57
2022-10-15T07:20:20.135Z,1.77
2022-10-15T07:22:50.980Z,0.50
2022-10-15T07:25:18.210Z,0.50
2022-10-15T07:27:45.450Z,0.88
2022-10-15T07:30:12.937Z,0.30
2022-10-15T07:32:40.468Z,0.30
2022-10-15T07:35:07.949Z,0.40
2022-10-15T07:37:35.504Z,0.38
2022-10-15T07:40:02.840Z,0.43
2022-10-15T07:42:30.281Z,0.60
2022-10-15T07:44:57.806Z,0.30
2022-10-15T07:47:25.438Z,0.30
2022-10-15T07:49:53.139Z,0.40
2022-10-15T07:52:20.406Z,0.30
2022-10-15T07:54:47.702Z,0.30
2022-10-15T07:57:15.002Z,0.30
2022-10-15T07:59:42.231Z,0.40
2022-10-15T08:02:15.743Z,0.32
2022-10-15T08:04:46.082Z,0.40
2022-10-15T08:07:13.367Z,0.47
2022-10-15T08:09:40.660Z,1.80
2022-10-15T08:12:08.021Z,0.35
2022-10-15T08:14:36.081Z,0.30
2022-10-15T08:17:04.105Z,0.20
2022-10-15T08:19:31.300Z,2.10
2022-10-15T08:21:58.742Z,0.50
2022-10-15T08:24:26.014Z,0.47
2022-10-15T08:26:54.369Z,0.50
2022-10-15T08:29:21.603Z,0.40
2022-10-15T08:31:49.501Z,0.82
2022-10-15T08:34:17.049Z,0.57
2022-10-15T08:36:44.306Z,0.50
2022-10-15T08:39:12.097Z,0.60
2022-10-15T08:41:42.091Z,0.85
2022-10-15T08:44:21.568Z,1.33
2022-10-15T08:46:51.419Z,1.88
2022-10-15T08:49:42.188Z,0.50
2022-10-15T08:52:18.334Z,0.88
2022-10-15T08:54:45.822Z,0.98
2022-10-15T08:57:25.536Z,1.00
2022-10-15T08:59:59.393Z,1.33
2022-10-15T09:02:39.043Z,2.75
2022-10-15T09:05:26.314Z,1.15
2022-10-15T09:07:59.684Z,3.28
2022-10-15T09:10:33.800Z,0.70
2022-10-15T09:13:03.687Z,2.67
2022-10-15T09:15:34.792Z,1.85
2022-10-15T09:18:02.057Z,2.47
2022-10-15T09:20:33.703Z,1.88
2022-10-15T09:23:01.434Z,1.40
2022-10-15T09:25:33.052Z,1.90
2022-10-15T09:28:01.673Z,0.70
2022-10-15T09:30:35.310Z,0.75
2022-10-15T09:33:02.664Z,1.40
2022-10-15T09:35:33.311Z,2.10
2022-10-15T09:38:14.231Z,1.48
2022-10-15T09:41:01.772Z,1.70
2022-10-15T09:43:35.977Z,2.85
2022-10-15T09:46:03.827Z,0.68
2022-10-15T09:48:42.747Z,3.00
2022-10-15T09:51:28.840Z,2.75
2022-10-15T09:53:56.039Z,0.85
2022-10-15T09:56:43.596Z,3.17
2022-10-15T09:59:18.337Z,0.90
2022-10-15T10:01:57.949Z,1.75
2022-10-15T10:04:28.388Z,0.90
2022-10-15T10:06:57.845Z,0.85
2022-10-15T10:09:37.139Z,2.75
2022-10-15T10:12:09.169Z,0.73
2022-10-15T10:14:38.349Z,1.20
2022-10-15T10:17:07.291Z,2.33
2022-10-15T10:19:34.845Z,1.17
2022-10-15T10:22:21.239Z,2.03
2022-10-15T10:24:48.651Z,1.15
2022-10-15T10:27:24.507Z,1.52
2022-10-15T10:30:00.421Z,2.58
2022-10-15T10:32:29.366Z,1.95
2022-10-15T10:34:57.072Z,2.70
2022-10-15T10:37:25.280Z,2.88
2022-10-15T10:39:53.461Z,0.70
2022-10-15T10:42:21.555Z,0.95
2022-10-15T10:44:48.878Z,2.38
2022-10-15T10:47:17.899Z,1.77
2022-10-15T10:49:46.515Z,1.50
2022-10-15T10:52:41.231Z,0.80
2022-10-15T10:55:19.621Z,2.60
2022-10-15T10:57:52.973Z,1.80
2022-10-15T11:00:30.755Z,2.00
2022-10-15T11:02:58.083Z,0.82
2022-10-15T11:05:31.108Z,1.38
2022-10-15T11:07:58.305Z,4.22
2022-10-15T11:10:36.325Z,1.67
2022-10-15T11:13:31.376Z,1.25
2022-10-15T11:16:08.692Z,2.10
2022-10-15T11:18:55.180Z,1.58
2022-10-15T11:21:47.543Z,4.00
2022-10-15T11:24:26.010Z,1.05
2022-10-15T11:27:10.411Z,0.70
2022-10-15T11:29:38.569Z,1.58
2022-10-15T11:32:17.245Z,0.88
2022-10-15T11:34:57.199Z,1.52
2022-10-15T11:37:24.390Z,1.65
2022-10-15T11:40:03.444Z,0.52
2022-10-15T11:42:30.657Z,1.75
2022-10-15T11:45:04.329Z,1.13
2022-10-15T11:47:48.688Z,1.60
2022-10-15T11:50:33.856Z,1.48
2022-10-15T11:53:10.216Z,1.23
2022-10-15T11:55:43.144Z,1.55
2022-10-15T11:58:24.460Z,1.33
2022-10-15T12:00:53.679Z,0.65
2022-10-15T12:03:24.497Z,0.77
2022-10-15T12:06:00.949Z,4.53
2022-10-15T12:08:31.230Z,3.30
2022-10-15T12:10:58.664Z,1.08
2022-10-15T12:13:25.863Z,0.77
2022-10-15T12:16:05.326Z,1.02
2022-10-15T12:18:36.549Z,2.25
2022-10-15T12:21:03.903Z,1.58
2022-10-15T12:23:37.165Z,1.85
2022-10-15T12:26:24.400Z,1.50
2022-10-15T12:28:53.419Z,0.75
2022-10-15T12:31:21.754Z,2.15
2022-10-15T12:33:49.058Z,1.15
2022-10-15T12:36:30.726Z,1.80
2022-10-15T12:39:00.687Z,1.65
2022-10-15T12:41:42.057Z,0.82
2022-10-15T12:44:12.542Z,0.70
2022-10-15T12:46:40.497Z,0.90
2022-10-15T12:49:26.628Z,0.50
2022-10-15T12:51:56.369Z,0.60
2022-10-15T12:54:40.851Z,1.17
2022-10-15T12:57:46.948Z,0.80
2022-10-15T13:00:34.405Z,1.10
2022-10-15T13:03:10.979Z,1.38
2022-10-15T13:05:38.456Z,1.50
2022-10-15T13:08:07.612Z,0.93
2022-10-15T13:10:46.718Z,1.05
2022-10-15T13:13:16.514Z,0.80
2022-10-15T13:15:54.524Z,1.75
2022-10-15T13:18:24.326Z,1.92
2022-10-15T13:20:54.750Z,0.60
2022-10-15T13:23:30.418Z,0.68
2022-10-15T13:26:17.288Z,2.70
2022-10-15T13:28:45.678Z,1.35
2022-10-15T13:31:15.609Z,0.57
2022-10-15T13:33:44.443Z,0.60
2022-10-15T13:36:18.138Z,0.80
2022-10-15T13:38:52.293Z,1.65
2022-10-15T13:41:24.051Z,2.42
2022-10-15T13:43:52.140Z,0.52
2022-10-15T13:46:19.418Z,2.08
2022-10-15T13:48:46.608Z,2.53
2022-10-15T13:51:14.047Z,0.93
2022-10-15T13:53:42.246Z,0.50
2022-10-15T13:56:27.387Z,0.60
2022-10-15T13:58:55.944Z,1.00
2022-10-15T14:01:24.403Z,3.38
2022-10-15T14:03:51.913Z,0.40
2022-10-15T14:06:23.861Z,0.47
2022-10-15T14:08:54.727Z,1.38
2022-10-15T14:11:22.534Z,2.47
2022-10-15T14:13:50.639Z,1.40
2022-10-15T14:16:22.781Z,1.65
2022-10-15T14:18:51.843Z,0.80
2022-10-15T14:21:20.519Z,0.77
2022-10-15T14:23:48.611Z,1.92
2022-10-15T14:26:17.000Z,0.82
2022-10-15T14:28:51.024Z,0.55
2022-10-15T14:31:30.611Z,1.85
2022-10-15T14:33:57.946Z,0.80
2022-10-15T14:36:32.732Z,1.65
2022-10-15T14:39:18.841Z,0.80
2022-10-15T14:41:59.854Z,1.67
2022-10-15T14:44:27.411Z,0.73
2022-10-15T14:47:02.178Z,1.20
2022-10-15T14:49:31.714Z,2.92
2022-10-15T14:52:05.233Z,0.70
2022-10-15T14:54:35.943Z,1.85
2022-10-15T14:57:03.400Z,0.85
2022-10-15T14:59:32.488Z,0.73
2022-10-15T15:02:02.902Z,1.65
2022-10-15T15:04:38.741Z,0.60
2022-10-15T15:07:22.273Z,0.82
2022-10-15T15:09:49.998Z,0.70
2022-10-15T15:12:24.275Z,1.65
2022-10-15T15:14:54.357Z,0.80
2022-10-15T15:17:23.188Z,0.57
2022-10-15T15:19:51.433Z,1.10
2022-10-15T15:22:22.341Z,1.13
2022-10-15T15:24:49.885Z,0.70
2022-10-15T15:27:21.543Z,0.70
2022-10-15T15:29:51.765Z,1.75
2022-10-15T15:32:19.589Z,2.33
2022-10-15T15:34:47.045Z,1.27
2022-10-15T15:37:16.671Z,2.10
2022-10-15T15:39:44.329Z,1.38
2022-10-15T15:42:15.418Z,1.80
2022-10-15T15:44:43.046Z,2.00
2022-10-15T15:47:10.758Z,1.83
2022-10-15T15:49:38.313Z,1.92
2022-10-15T15:52:10.735Z,3.45
2022-10-15T15:54:38.154Z,0.80
2022-10-15T15:57:05.419Z,1.60
2022-10-15T15:59:32.676Z,3.10
2022-10-15T16:01:59.970Z,1.73
2022-10-15T16:04:27.348Z,0.70
2022-10-15T16:06:54.622Z,1.58
2022-10-15T16:09:24.834Z,2.40
2022-10-15T16:11:53.570Z,1.48
2022-10-15T16:14:20.951Z,1.65
2022-10-15T16:16:48.536Z,8.98
2022-10-15T16:19:15.725Z,1.90
2022-10-15T16:21:42.963Z,1.85
2022-10-15T16:24:10.328Z,1.00
2022-10-15T16:26:37.553Z,3.33
2022-10-15T16:29:04.926Z,3.15
2022-10-15T16:31:36.564Z,7.50
2022-10-15T16:34:07.075Z,13.68
2022-10-15T16:36:34.351Z,9.48
2022-10-15T16:39:01.799Z,22.63
2022-10-15T16:41:29.171Z,8.70
2022-10-15T16:43:56.467Z,4.63
2022-10-15T16:46:23.795Z,3.25
2022-10-15T16:48:55.157Z,2.90
2022-10-15T16:51:23.295Z,4.55
2022-10-15T16:53:51.352Z,3.28
2022-10-15T16:56:20.431Z,2.50
2022-10-15T16:58:48.046Z,2.42
2022-10-15T17:01:17.077Z,4.55
2022-10-15T17:03:45.436Z,2.08
2022-10-15T17:06:14.815Z,7.75
2022-10-15T17:08:43.376Z,3.40
2022-10-15T17:11:15.393Z,2.40
2022-10-15T17:13:43.081Z,2.17
2022-10-15T17:16:15.015Z,1.05
2022-10-15T17:18:43.241Z,1.30
2022-10-15T17:21:12.715Z,1.95
2022-10-15T17:23:40.389Z,3.08
2022-10-15T17:26:09.143Z,1.40
2022-10-15T17:28:37.292Z,2.72
2022-10-15T17:31:10.933Z,2.08
2022-10-15T17:33:39.294Z,4.82
2022-10-15T17:36:09.671Z,6.88
2022-10-15T17:38:37.563Z,4.80
2022-10-15T17:41:24.368Z,8.82
2022-10-15T17:43:52.045Z,2.67
2022-10-15T17:46:20.625Z,4.78
2022-10-15T17:48:48.254Z,1.75
2022-10-15T17:51:16.763Z,4.50
2022-10-15T17:53:44.887Z,1.70
2022-10-15T17:56:15.107Z,1.50
2022-10-15T17:58:44.774Z,2.20
2022-10-15T18:01:23.764Z,2.95
2022-10-15T18:04:01.026Z,1.40
2022-10-15T18:06:28.955Z,1.33
2022-10-15T18:08:56.653Z,3.30
2022-10-15T18:11:29.084Z,1.77
2022-10-15T18:13:56.326Z,1.92
2022-10-15T18:16:23.679Z,3.28
2022-10-15T18:18:51.145Z,1.00
2022-10-15T18:21:19.383Z,1.17
2022-10-15T18:23:47.467Z,1.38
2022-10-15T18:26:19.531Z,3.13
2022-10-15T18:28:47.644Z,5.43
2022-10-15T18:31:15.654Z,2.47
2022-10-15T18:33:47.289Z,3.83
2022-10-15T18:36:19.722Z,3.22
2022-10-15T18:38:47.117Z,4.05
2022-10-15T18:41:15.558Z,5.35
2022-10-15T18:43:42.868Z,4.85
2022-10-15T18:46:10.327Z,5.55
2022-10-15T18:48:38.417Z,3.05
2022-10-15T18:51:09.954Z,1.80
2022-10-15T18:53:38.041Z,1.60
2022-10-15T18:56:06.702Z,0.90
2022-10-15T18:58:34.483Z,1.70
2022-10-15T19:01:41.975Z,2.03
2022-10-15T19:04:11.325Z,1.30
2022-10-15T19:06:42.623Z,2.38
2022-10-15T19:09:14.893Z,1.65
2022-10-15T19:11:43.246Z,1.40
2022-10-15T19:14:10.774Z,2.03
2022-10-15T19:16:38.241Z,1.15
2022-10-15T19:19:06.437Z,1.95
2022-10-15T19:21:33.869Z,1.30
2022-10-15T19:24:01.263Z,1.38
2022-10-15T19:26:29.763Z,1.13
2022-10-15T19:28:57.639Z,0.95
2022-10-15T19:31:27.249Z,1.95
2022-10-15T19:33:54.919Z,4.57
2022-10-15T19:36:25.307Z,1.40
2022-10-15T19:38:52.804Z,3.67
2022-10-15T19:41:20.564Z,3.78
2022-10-15T19:43:48.014Z,3.70
2022-10-15T19:46:15.786Z,2.28
2022-10-15T19:48:43.043Z,1.42
2022-10-15T19:51:10.367Z,0.93
2022-10-15T19:53:37.584Z,2.17
2022-10-15T19:56:06.149Z,1.70
2022-10-15T19:58:33.614Z,2.28
2022-10-15T20:01:01.059Z,2.90
2022-10-15T20:03:29.759Z,3.90
2022-10-15T20:05:57.451Z,3.47
2022-10-15T20:08:25.199Z,2.95
2022-10-15T20:10:53.231Z,4.75
2022-10-15T20:13:21.835Z,3.70
2022-10-15T20:15:50.627Z,2.95
2022-10-15T20:18:18.393Z,1.40
2022-10-15T20:20:46.269Z,1.00
2022-10-15T20:23:17.899Z,1.30
2022-10-15T20:25:45.954Z,1.73
2022-10-15T20:28:14.110Z,1.33
2022-10-15T20:30:41.741Z,1.58
2022-10-15T20:33:09.838Z,1.20
2022-10-15T20:35:37.675Z,1.10
2022-10-15T20:38:05.215Z,1.38
2022-10-15T20:40:32.805Z,3.80
2022-10-15T20:43:00.028Z,5.18
2022-10-15T20:45:28.181Z,3.50
2022-10-15T20:47:55.547Z,3.85
2022-10-15T20:50:27.955Z,3.22
2022-10-15T20:52:56.618Z,2.42
2022-10-15T20:55:24.157Z,2.25
2022-10-15T20:57:51.550Z,0.93
2022-10-15T21:00:19.156Z,0.90
2022-10-15T21:02:46.384Z,0.80
2022-10-15T21:05:13.625Z,4.63
2022-10-15T21:07:40.817Z,1.85
2022-10-15T21:10:08.252Z,5.22
2022-10-15T21:12:35.675Z,6.25
2022-10-15T21:15:02.919Z,4.57
2022-10-15T21:17:30.219Z,4.38
2022-10-15T21:19:57.583Z,3.70
2022-10-15T21:22:24.978Z,3.75
2022-10-15T21:24:54.275Z,5.57
2022-10-15T21:27:21.732Z,6.82
2022-10-15T21:29:49.578Z,6.90
2022-10-15T21:32:17.011Z,6.80
2022-10-15T21:34:44.524Z,4.38
2022-10-15T21:37:12.090Z,3.50
2022-10-15T21:39:39.315Z,3.97
2022-10-15T21:42:06.540Z,4.43
2022-10-15T21:44:33.921Z,2.92
2022-10-15T21:47:01.412Z,1.70
2022-10-15T21:49:28.638Z,1.50
2022-10-15T21:51:55.888Z,1.80
2022-10-15T21:54:23.145Z,1.55
2022-10-15T21:56:50.414Z,1.70
2022-10-15T21:59:17.680Z,2.67
2022-10-15T22:01:45.634Z,2.20
2022-10-15T22:04:12.974Z,3.30
2022-10-15T22:06:41.020Z,1.25
2022-10-15T22:09:09.214Z,1.23
2022-10-15T22:11:38.066Z,1.75
2022-10-15T22:14:07.042Z,1.27
2022-10-15T22:16:36.184Z,1.20
2022-10-15T22:19:03.982Z,1.00
2022-10-15T22:21:32.696Z,2.00
2022-10-15T22:24:01.301Z,1.58
2022-10-15T22:26:38.996Z,3.08
2022-10-15T22:29:07.444Z,1.40
2022-10-15T22:31:34.962Z,1.20
2022-10-15T22:34:02.204Z,2.60
2022-10-15T22:36:30.436Z,1.20
2022-10-15T22:39:01.689Z,1.27
2022-10-15T22:41:30.573Z,1.63
2022-10-15T22:43:58.184Z,1.98
2022-10-15T22:46:25.650Z,3.05
2022-10-15T22:48:53.757Z,1.95
2022-10-15T22:51:21.989Z,1.40
2022-10-15T22:53:49.174Z,2.53
2022-10-15T22:56:18.340Z,1.70
2022-10-15T22:58:46.485Z,2.85
2022-10-15T23:01:21.788Z,1.80
2022-10-15T23:03:50.172Z,1.83
2022-10-15T23:06:17.816Z,2.28
2022-10-15T23:08:47.175Z,1.33
2022-10-15T23:11:15.994Z,2.05
2022-10-15T23:13:43.968Z,1.77
2022-10-15T23:16:14.488Z,2.75
2022-10-15T23:18:41.958Z,1.20
2022-10-15T23:21:16.281Z,3.35
2022-10-15T23:23:44.109Z,2.08
2022-10-15T23:26:12.805Z,1.35
2022-10-15T23:28:40.504Z,3.35
2022-10-15T23:31:08.392Z,1.48
2022-10-15T23:33:35.617Z,2.80
2022-10-15T23:36:04.376Z,1.40
2022-10-15T23:38:31.907Z,2.42
2022-10-15T23:41:03.294Z,2.42
2022-10-15T23:43:30.716Z,5.63
2022-10-15T23:45:58.165Z,4.68
2022-10-15T23:48:25.725Z,5.25
2022-10-15T23:50:53.142Z,1.55
2022-10-15T23:53:20.827Z,1.40
2022-10-15T23:55:48.383Z,2.55
2022-10-15T23:58:15.685Z,2.33
